Fure West — OZ2100 — position and weather

sailwx.info

Track history (hours):
 
Tides and Currents Weather Stations Pressure Air Temp Water Temp Dewpoint Dewpoint Depression Visibility Wind Speed Wind Dir Waves Ship Positions

Fure West

Last reported at 2014-Oct-31 21:33 UTC. Time now 2014-Oct-31 22:21 UTC.
Position N 55°27' E 018°52'.

Length 144 m; draft 6.3 m.

Type: Tanker. MMSI: 231775000.

Date/timePositionNaut miles runAvg speedWind from/ knotsBaromVisibWave heightAir tempDewpointWater temp
2014-Oct-31 21:33N 55°27' E 018°52'8914.4
2014-Oct-31 15:23N 56°49' E 017°50'1614.7
2014-Oct-31 14:19N 57°03' E 017°39'1114.6
2014-Oct-31 13:33N 57°13' E 017°30'1414.3
2014-Oct-31 12:33N 57°25' E 017°16'1313.2
2014-Oct-31 11:33N 57°21' E 016°54'1312.6
2014-Oct-31 10:33N 57°16' E 016°32'2 1.7
2014-Oct-31 09:33N 57°16' E 016°29'0 0.0
2014-Oct-31 08:33N 57°16' E 016°29'0 0.0
2014-Oct-31 07:33N 57°16' E 016°29'0 0.0
2014-Oct-31 06:33N 57°16' E 016°29'0 0.0
2014-Oct-31 05:33N 57°16' E 016°29'0 0.0
2014-Oct-31 04:33N 57°16' E 016°29'0 0.0
2014-Oct-31 03:33N 57°16' E 016°29'0 0.0
2014-Oct-31 02:33N 57°16' E 016°29'0 0.0
2014-Oct-31 01:33N 57°16' E 016°29'0 0.0
2014-Oct-31 00:33N 57°16' E 016°29'0 0.0
2014-Oct-30 23:33N 57°16' E 016°29'0 0.0
2014-Oct-30 22:33N 57°16' E 016°29'0 0.0
2014-Oct-30 21:33N 57°16' E 016°29'0 0.0
2014-Oct-30 20:33N 57°16' E 016°29'0 0.0
2014-Oct-30 19:34N 57°16' E 016°29'0 0.0
2014-Oct-30 18:33N 57°16' E 016°29'0 0.0
2014-Oct-30 17:33N 57°16' E 016°29'0 0.0
2014-Oct-30 16:33N 57°16' E 016°29'0 0.0
2014-Oct-30 15:33N 57°16' E 016°29'0 0.0
2014-Oct-30 14:33N 57°16' E 016°29'0 0.0
2014-Oct-30 13:33N 57°16' E 016°29'0 0.0
2014-Oct-30 12:33N 57°16' E 016°29'0 0.0
2014-Oct-30 11:33N 57°16' E 016°29'0 0.0
2014-Oct-30 10:33N 57°16' E 016°29'0 0.0
2014-Oct-30 09:33N 57°16' E 016°29'0 0.0
2014-Oct-30 08:33N 57°16' E 016°29'0 0.0
2014-Oct-30 07:33N 57°16' E 016°29'0 0.0
2014-Oct-30 06:33N 57°16' E 016°29'4 3.8
2014-Oct-30 05:33N 57°16' E 016°36'1 1.4
2014-Oct-30 04:33N 57°14' E 016°36'0 0.0
2014-Oct-30 03:33N 57°14' E 016°36'0 0.0
2014-Oct-30 02:33N 57°14' E 016°36'0 0.0
2014-Oct-30 01:33N 57°14' E 016°36'0 0.0
2014-Oct-30 00:33N 57°14' E 016°36'0 0.0
2014-Oct-29 23:33N 57°14' E 016°36'0 0.0
2014-Oct-29 22:33N 57°14' E 016°36'0 0.0
2014-Oct-29 21:33N 57°14' E 016°36'0 0.0
2014-Oct-29 20:33N 57°14' E 016°36'0 0.0
2014-Oct-29 19:33N 57°14' E 016°36'0 0.1
2014-Oct-29 18:33N 57°14' E 016°36'0 0.0
2014-Oct-29 17:33N 57°14' E 016°36'0 0.0
2014-Oct-29 16:33N 57°14' E 016°36'0 0.0
2014-Oct-29 15:33N 57°14' E 016°36'0 0.0
2014-Oct-29 14:33N 57°14' E 016°36'0 0.0
2014-Oct-29 13:33N 57°14' E 016°36'0 0.0
2014-Oct-29 12:30N 57°14' E 016°36'0 0.0
2014-Oct-29 11:33N 57°14' E 016°36'0 0.0
2014-Oct-29 10:33N 57°14' E 016°36'0 0.0
2014-Oct-29 09:33N 57°14' E 016°36'0 0.0
2014-Oct-29 08:33N 57°14' E 016°36'0 0.0
2014-Oct-29 07:33N 57°14' E 016°36'0 0.0
2014-Oct-29 06:33N 57°14' E 016°36'0 0.0
2014-Oct-29 05:33N 57°14' E 016°36'0 0.0
2014-Oct-29 04:33N 57°15' E 016°36'0 0.0
2014-Oct-29 03:33N 57°15' E 016°36'0 0.0
2014-Oct-29 02:33N 57°15' E 016°36'0 0.0
2014-Oct-29 01:33N 57°15' E 016°36'0 0.0
2014-Oct-29 00:33N 57°15' E 016°36'0 0.0
2014-Oct-28 23:33N 57°15' E 016°36'4 3.9
2014-Oct-28 22:34N 57°16' E 016°43'1010.1
2014-Oct-28 21:34N 57°24' E 016°55'10 9.9
2014-Oct-28 20:33N 57°30' E 017°09'1110.8
2014-Oct-28 19:34N 57°22' E 017°23'1211.9
2014-Oct-28 18:32N 57°10' E 017°29'1111.7
2014-Oct-28 17:33N 56°59' E 017°25'1312.0
2014-Oct-28 16:30N 56°47' E 017°17'1411.9
2014-Oct-28 15:18N 56°33' E 017°09'911.9
2014-Oct-28 14:33N 56°25' E 017°05'1311.9
2014-Oct-28 13:26N 56°12' E 016°56'2512.0
2014-Oct-28 11:22N 55°56' E 016°23'1411.8
2014-Oct-28 10:10N 55°49' E 016°01'811.8
2014-Oct-28 09:27N 55°44' E 015°48'1111.8
2014-Oct-28 08:33N 55°39' E 015°32'1212.0
2014-Oct-28 07:33N 55°33' E 015°14'1211.7
2014-Oct-28 06:33N 55°28' E 014°55'1211.7
2014-Oct-28 05:34N 55°22' E 014°38'1211.9
2014-Oct-28 04:34N 55°13' E 014°25'1211.9
2014-Oct-28 03:34N 55°03' E 014°12'1111.4
2014-Oct-28 02:34N 54°58' E 013°54'1111.5
2014-Oct-28 01:34N 54°55' E 013°35'1311.3
2014-Oct-28 00:26N 54°51' E 013°14'1311.5
2014-Oct-27 23:17N 54°48' E 012°52'911.7
2014-Oct-27 22:33N 54°44' E 012°38'1512.2
2014-Oct-27 21:20N 54°36' E 012°17'1012.5
2014-Oct-27 20:33N 54°27' E 012°12'1211.7
2014-Oct-27 19:33N 54°25' E 011°52'1512.9
2014-Oct-27 18:22N 54°30' E 011°27'1213.1
2014-Oct-27 17:26N 54°35' E 011°09'1213.0
2014-Oct-27 16:33N 54°34' E 010°49'1211.7
2014-Oct-27 15:33N 54°32' E 010°29'1010.4
2014-Oct-27 14:33N 54°26' E 010°14'5 5.4
2014-Oct-27 13:33N 54°22' E 010°08'1 0.9
2014-Oct-27 12:33N 54°22' E 010°07'0 0.2
2014-Oct-27 11:33N 54°22' E 010°07'4 4.1
2014-Oct-27 10:33N 54°21' E 009°60'6 5.5
2014-Oct-27 09:33N 54°22' E 009°50'6 5.8
2014-Oct-27 08:33N 54°18' E 009°43'4 3.8
2014-Oct-27 07:30N 54°16' E 009°37'5 4.5
2014-Oct-27 06:29N 54°12' E 009°33'16 5.0
2014-Oct-27 03:22N 53°59' E 009°17'6 6.9
2014-Oct-27 02:34N 53°55' E 009°11'2 1.9
2014-Oct-27 01:33N 53°54' E 009°09'1 1.4
2014-Oct-27 00:33N 53°53' E 009°07'3 3.2
2014-Oct-26 23:34N 53°52' E 009°02'1312.9
2014-Oct-26 22:33N 53°55' E 008°41'1414.3
2014-Oct-26 21:33N 53°60' E 008°18'1313.2
2014-Oct-26 20:33N 54°02' E 007°56'1312.8
2014-Oct-26 19:33N 54°09' E 007°37'1212.1
2014-Oct-26 18:33N 54°09' E 007°16'3611.5
2014-Oct-26 15:28N 54°08' E 006°16'1111.5
2014-Oct-26 14:31N 54°07' E 005°57'1111.5
2014-Oct-26 13:31N 54°05' E 005°38'1212.0
2014-Oct-26 12:33N 54°03' E 005°18'1212.0
2014-Oct-26 11:33N 54°01' E 004°58'12411.0
2014-Oct-26 00:16N 52°09' E 003°32'811.9
2014-Oct-25 23:33N 52°05' E 003°45'1111.5
2014-Oct-25 22:33N 51°60' E 004°02'9 8.3
2014-Oct-25 21:31N 51°55' E 004°13'0 0.0
2014-Oct-25 20:31N 51°55' E 004°13'0 0.0
2014-Oct-25 19:31N 51°55' E 004°13'0 0.0
2014-Oct-25 18:31N 51°55' E 004°13'0 0.0
2014-Oct-25 17:31N 51°55' E 004°13'0 0.0
2014-Oct-25 16:31N 51°55' E 004°13'0 0.0
2014-Oct-25 15:31N 51°55' E 004°13'0 0.0
2014-Oct-25 14:31N 51°55' E 004°13'0 0.0
2014-Oct-25 13:28N 51°55' E 004°13'0 0.0
2014-Oct-25 12:31N 51°55' E 004°13'0 0.0
2014-Oct-25 11:31N 51°55' E 004°13'0 0.0
2014-Oct-25 10:28N 51°55' E 004°13'0 0.0
2014-Oct-25 09:28N 51°55' E 004°13'0 0.0
2014-Oct-25 08:31N 51°55' E 004°13'0 0.0
2014-Oct-25 07:31N 51°55' E 004°13'0 0.0
2014-Oct-25 06:31N 51°55' E 004°13'0 0.0
2014-Oct-25 05:28N 51°55' E 004°13'0 0.0
2014-Oct-25 04:31N 51°55' E 004°13'0 0.0
2014-Oct-25 03:31N 51°55' E 004°13'0 0.0
2014-Oct-25 02:31N 51°55' E 004°13'0 0.0
2014-Oct-25 01:31N 51°55' E 004°13'0 0.0
2014-Oct-25 00:31N 51°55' E 004°13'0 0.0
2014-Oct-24 23:33N 51°55' E 004°13'1 1.4
2014-Oct-24 22:33N 51°56' E 004°11'9 9.2
2014-Oct-24 21:33N 52°00' E 003°58'10 9.7
2014-Oct-24 20:33N 52°05' E 003°44'3 2.6
2014-Oct-24 19:26N 52°08' E 003°42'0 0.0
2014-Oct-24 18:26N 52°08' E 003°42'0 0.0
2014-Oct-24 13:14N 52°07' E 003°42'0 0.0
2014-Oct-24 12:26N 52°07' E 003°42'0 0.0
2014-Oct-24 11:32N 52°07' E 003°42'0 0.0
2014-Oct-24 10:32N 52°08' E 003°42'0 0.0
2014-Oct-24 05:14N 52°08' E 003°42'0 0.0
2014-Oct-24 00:22N 52°07' E 003°42'0 0.2
2014-Oct-23 23:33N 52°07' E 003°42'10 9.7
2014-Oct-23 22:33N 52°02' E 003°55'1211.6
2014-Oct-23 21:33N 51°56' E 004°11'2 1.6
2014-Oct-23 20:33N 51°55' E 004°13'0 0.0
2014-Oct-23 19:27N 51°55' E 004°13'0 0.0
2014-Oct-23 18:30N 51°55' E 004°13'0 0.0
2014-Oct-23 17:33N 51°55' E 004°13'0 0.0
2014-Oct-23 16:30N 51°55' E 004°13'0 0.0
2014-Oct-23 15:30N 51°55' E 004°13'0 0.0
2014-Oct-23 14:30N 51°55' E 004°13'0 0.0
2014-Oct-23 13:33N 51°55' E 004°13'0 0.0
2014-Oct-23 12:33N 51°55' E 004°13'0 0.0
2014-Oct-23 11:30N 51°55' E 004°13'0 0.0
2014-Oct-23 10:12N 51°55' E 004°13'0 0.0
2014-Oct-23 09:33N 51°55' E 004°13'0 0.0
2014-Oct-23 08:30N 51°55' E 004°13'0 0.0
2014-Oct-23 07:33N 51°55' E 004°13'0 0.0
2014-Oct-23 06:30N 51°55' E 004°13'0 0.0
2014-Oct-23 05:30N 51°55' E 004°13'0 0.0
2014-Oct-23 04:33N 51°55' E 004°13'0 0.0
2014-Oct-23 03:33N 51°55' E 004°13'0 0.0
2014-Oct-23 02:24N 51°55' E 004°13'0 0.0
2014-Oct-23 01:24N 51°55' E 004°13'0 0.0
2014-Oct-23 00:30N 51°55' E 004°13'0 0.0
2014-Oct-22 23:30N 51°55' E 004°13'0 0.0
2014-Oct-22 22:33N 51°55' E 004°13'5 5.3
2014-Oct-22 21:33N 51°58' E 004°06'1110.7
2014-Oct-22 20:34N 52°01' E 003°49'12 9.6
2014-Oct-22 19:22N 52°08' E 003°34'2 0.3
2014-Oct-22 10:30N 52°10' E 003°34'0 0.0
2014-Oct-22 09:30N 52°10' E 003°33'0 0.5
2014-Oct-22 08:32N 52°11' E 003°34'2 0.6
2014-Oct-22 05:33N 52°13' E 003°33'1 0.9
2014-Oct-22 04:21N 52°13' E 003°35'1 0.6
2014-Oct-22 03:23N 52°13' E 003°36'1 0.4
2014-Oct-22 01:30N 52°13' E 003°36'1 1.1
2014-Oct-22 00:30N 52°11' E 003°36'1 1.2
2014-Oct-21 23:24N 52°11' E 003°34'1 0.8
2014-Oct-21 22:30N 52°11' E 003°33'  
Track history (hours):
 
Tides and Currents Weather Stations Pressure Air Temp Water Temp Dewpoint Dewpoint Depression Visibility Wind Speed Wind Dir Waves Ship Positions

Fure West

Last reported at 2014-Oct-31 21:33 UTC. Time now 2014-Oct-31 22:21 UTC.
Position N 55°27' E 018°52'.

Length 144 m; draft 6.3 m.

Type: Tanker. MMSI: 231775000.

Date/timePositionNaut miles runAvg speedWind from/ knotsBaromVisibWave heightAir tempDewpointWater temp
2014-Oct-31 21:33N 55°27' E 018°52'8914.4
2014-Oct-31 15:23N 56°49' E 017°50'1614.7
2014-Oct-31 14:19N 57°03' E 017°39'1114.6
2014-Oct-31 13:33N 57°13' E 017°30'1414.3
2014-Oct-31 12:33N 57°25' E 017°16'1313.2
2014-Oct-31 11:33N 57°21' E 016°54'1312.6
2014-Oct-31 10:33N 57°16' E 016°32'2 1.7
2014-Oct-31 09:33N 57°16' E 016°29'0 0.0
2014-Oct-31 08:33N 57°16' E 016°29'0 0.0
2014-Oct-31 07:33N 57°16' E 016°29'0 0.0
2014-Oct-31 06:33N 57°16' E 016°29'0 0.0
2014-Oct-31 05:33N 57°16' E 016°29'0 0.0
2014-Oct-31 04:33N 57°16' E 016°29'0 0.0
2014-Oct-31 03:33N 57°16' E 016°29'0 0.0
2014-Oct-31 02:33N 57°16' E 016°29'0 0.0
2014-Oct-31 01:33N 57°16' E 016°29'0 0.0
2014-Oct-31 00:33N 57°16' E 016°29'0 0.0
2014-Oct-30 23:33N 57°16' E 016°29'0 0.0
2014-Oct-30 22:33N 57°16' E 016°29'0 0.0
2014-Oct-30 21:33N 57°16' E 016°29'0 0.0
2014-Oct-30 20:33N 57°16' E 016°29'0 0.0
2014-Oct-30 19:34N 57°16' E 016°29'0 0.0
2014-Oct-30 18:33N 57°16' E 016°29'0 0.0
2014-Oct-30 17:33N 57°16' E 016°29'0 0.0
2014-Oct-30 16:33N 57°16' E 016°29'0 0.0
2014-Oct-30 15:33N 57°16' E 016°29'0 0.0
2014-Oct-30 14:33N 57°16' E 016°29'0 0.0
2014-Oct-30 13:33N 57°16' E 016°29'0 0.0
2014-Oct-30 12:33N 57°16' E 016°29'0 0.0
2014-Oct-30 11:33N 57°16' E 016°29'0 0.0
2014-Oct-30 10:33N 57°16' E 016°29'0 0.0
2014-Oct-30 09:33N 57°16' E 016°29'0 0.0
2014-Oct-30 08:33N 57°16' E 016°29'0 0.0
2014-Oct-30 07:33N 57°16' E 016°29'0 0.0
2014-Oct-30 06:33N 57°16' E 016°29'4 3.8
2014-Oct-30 05:33N 57°16' E 016°36'1 1.4
2014-Oct-30 04:33N 57°14' E 016°36'0 0.0
2014-Oct-30 03:33N 57°14' E 016°36'0 0.0
2014-Oct-30 02:33N 57°14' E 016°36'0 0.0
2014-Oct-30 01:33N 57°14' E 016°36'0 0.0
2014-Oct-30 00:33N 57°14' E 016°36'0 0.0
2014-Oct-29 23:33N 57°14' E 016°36'0 0.0
2014-Oct-29 22:33N 57°14' E 016°36'0 0.0
2014-Oct-29 21:33N 57°14' E 016°36'0 0.0
2014-Oct-29 20:33N 57°14' E 016°36'0 0.0
2014-Oct-29 19:33N 57°14' E 016°36'0 0.1
2014-Oct-29 18:33N 57°14' E 016°36'0 0.0
2014-Oct-29 17:33N 57°14' E 016°36'0 0.0
2014-Oct-29 16:33N 57°14' E 016°36'0 0.0
2014-Oct-29 15:33N 57°14' E 016°36'0 0.0
2014-Oct-29 14:33N 57°14' E 016°36'0 0.0
2014-Oct-29 13:33N 57°14' E 016°36'0 0.0
2014-Oct-29 12:30N 57°14' E 016°36'0 0.0
2014-Oct-29 11:33N 57°14' E 016°36'0 0.0
2014-Oct-29 10:33N 57°14' E 016°36'0 0.0
2014-Oct-29 09:33N 57°14' E 016°36'0 0.0
2014-Oct-29 08:33N 57°14' E 016°36'0 0.0
2014-Oct-29 07:33N 57°14' E 016°36'0 0.0
2014-Oct-29 06:33N 57°14' E 016°36'0 0.0
2014-Oct-29 05:33N 57°14' E 016°36'0 0.0
2014-Oct-29 04:33N 57°15' E 016°36'0 0.0
2014-Oct-29 03:33N 57°15' E 016°36'0 0.0
2014-Oct-29 02:33N 57°15' E 016°36'0 0.0
2014-Oct-29 01:33N 57°15' E 016°36'0 0.0
2014-Oct-29 00:33N 57°15' E 016°36'0 0.0
2014-Oct-28 23:33N 57°15' E 016°36'4 3.9
2014-Oct-28 22:34N 57°16' E 016°43'1010.1
2014-Oct-28 21:34N 57°24' E 016°55'10 9.9
2014-Oct-28 20:33N 57°30' E 017°09'1110.8
2014-Oct-28 19:34N 57°22' E 017°23'1211.9
2014-Oct-28 18:32N 57°10' E 017°29'1111.7
2014-Oct-28 17:33N 56°59' E 017°25'1312.0
2014-Oct-28 16:30N 56°47' E 017°17'1411.9
2014-Oct-28 15:18N 56°33' E 017°09'911.9
2014-Oct-28 14:33N 56°25' E 017°05'1311.9
2014-Oct-28 13:26N 56°12' E 016°56'2512.0
2014-Oct-28 11:22N 55°56' E 016°23'1411.8
2014-Oct-28 10:10N 55°49' E 016°01'811.8
2014-Oct-28 09:27N 55°44' E 015°48'1111.8
2014-Oct-28 08:33N 55°39' E 015°32'1212.0
2014-Oct-28 07:33N 55°33' E 015°14'1211.7
2014-Oct-28 06:33N 55°28' E 014°55'1211.7
2014-Oct-28 05:34N 55°22' E 014°38'1211.9
2014-Oct-28 04:34N 55°13' E 014°25'1211.9
2014-Oct-28 03:34N 55°03' E 014°12'1111.4
2014-Oct-28 02:34N 54°58' E 013°54'1111.5
2014-Oct-28 01:34N 54°55' E 013°35'1311.3
2014-Oct-28 00:26N 54°51' E 013°14'1311.5
2014-Oct-27 23:17N 54°48' E 012°52'911.7
2014-Oct-27 22:33N 54°44' E 012°38'1512.2
2014-Oct-27 21:20N 54°36' E 012°17'1012.5
2014-Oct-27 20:33N 54°27' E 012°12'1211.7
2014-Oct-27 19:33N 54°25' E 011°52'1512.9
2014-Oct-27 18:22N 54°30' E 011°27'1213.1
2014-Oct-27 17:26N 54°35' E 011°09'1213.0
2014-Oct-27 16:33N 54°34' E 010°49'1211.7
2014-Oct-27 15:33N 54°32' E 010°29'1010.4
2014-Oct-27 14:33N 54°26' E 010°14'5 5.4
2014-Oct-27 13:33N 54°22' E 010°08'1 0.9
2014-Oct-27 12:33N 54°22' E 010°07'0 0.2
2014-Oct-27 11:33N 54°22' E 010°07'4 4.1
2014-Oct-27 10:33N 54°21' E 009°60'6 5.5
2014-Oct-27 09:33N 54°22' E 009°50'6 5.8
2014-Oct-27 08:33N 54°18' E 009°43'4 3.8
2014-Oct-27 07:30N 54°16' E 009°37'5 4.5
2014-Oct-27 06:29N 54°12' E 009°33'16 5.0
2014-Oct-27 03:22N 53°59' E 009°17'6 6.9
2014-Oct-27 02:34N 53°55' E 009°11'2 1.9
2014-Oct-27 01:33N 53°54' E 009°09'1 1.4
2014-Oct-27 00:33N 53°53' E 009°07'3 3.2
2014-Oct-26 23:34N 53°52' E 009°02'1312.9
2014-Oct-26 22:33N 53°55' E 008°41'1414.3
2014-Oct-26 21:33N 53°60' E 008°18'1313.2
2014-Oct-26 20:33N 54°02' E 007°56'1312.8
2014-Oct-26 19:33N 54°09' E 007°37'1212.1
2014-Oct-26 18:33N 54°09' E 007°16'3611.5
2014-Oct-26 15:28N 54°08' E 006°16'1111.5
2014-Oct-26 14:31N 54°07' E 005°57'1111.5
2014-Oct-26 13:31N 54°05' E 005°38'1212.0
2014-Oct-26 12:33N 54°03' E 005°18'1212.0
2014-Oct-26 11:33N 54°01' E 004°58'12411.0
2014-Oct-26 00:16N 52°09' E 003°32'811.9
2014-Oct-25 23:33N 52°05' E 003°45'1111.5
2014-Oct-25 22:33N 51°60' E 004°02'9 8.3
2014-Oct-25 21:31N 51°55' E 004°13'0 0.0
2014-Oct-25 20:31N 51°55' E 004°13'0 0.0
2014-Oct-25 19:31N 51°55' E 004°13'0 0.0
2014-Oct-25 18:31N 51°55' E 004°13'0 0.0
2014-Oct-25 17:31N 51°55' E 004°13'0 0.0
2014-Oct-25 16:31N 51°55' E 004°13'0 0.0
2014-Oct-25 15:31N 51°55' E 004°13'0 0.0
2014-Oct-25 14:31N 51°55' E 004°13'0 0.0
2014-Oct-25 13:28N 51°55' E 004°13'0 0.0
2014-Oct-25 12:31N 51°55' E 004°13'0 0.0
2014-Oct-25 11:31N 51°55' E 004°13'0 0.0
2014-Oct-25 10:28N 51°55' E 004°13'0 0.0
2014-Oct-25 09:28N 51°55' E 004°13'0 0.0
2014-Oct-25 08:31N 51°55' E 004°13'0 0.0
2014-Oct-25 07:31N 51°55' E 004°13'0 0.0
2014-Oct-25 06:31N 51°55' E 004°13'0 0.0
2014-Oct-25 05:28N 51°55' E 004°13'0 0.0
2014-Oct-25 04:31N 51°55' E 004°13'0 0.0
2014-Oct-25 03:31N 51°55' E 004°13'0 0.0
2014-Oct-25 02:31N 51°55' E 004°13'0 0.0
2014-Oct-25 01:31N 51°55' E 004°13'0 0.0
2014-Oct-25 00:31N 51°55' E 004°13'0 0.0
2014-Oct-24 23:33N 51°55' E 004°13'1 1.4
2014-Oct-24 22:33N 51°56' E 004°11'9 9.2
2014-Oct-24 21:33N 52°00' E 003°58'10 9.7
2014-Oct-24 20:33N 52°05' E 003°44'3 2.6
2014-Oct-24 19:26N 52°08' E 003°42'0 0.0
2014-Oct-24 18:26N 52°08' E 003°42'0 0.0
2014-Oct-24 13:14N 52°07' E 003°42'0 0.0
2014-Oct-24 12:26N 52°07' E 003°42'0 0.0
2014-Oct-24 11:32N 52°07' E 003°42'0 0.0
2014-Oct-24 10:32N 52°08' E 003°42'0 0.0
2014-Oct-24 05:14N 52°08' E 003°42'0 0.0
2014-Oct-24 00:22N 52°07' E 003°42'0 0.2
2014-Oct-23 23:33N 52°07' E 003°42'10 9.7
2014-Oct-23 22:33N 52°02' E 003°55'1211.6
2014-Oct-23 21:33N 51°56' E 004°11'2 1.6
2014-Oct-23 20:33N 51°55' E 004°13'0 0.0
2014-Oct-23 19:27N 51°55' E 004°13'0 0.0
2014-Oct-23 18:30N 51°55' E 004°13'0 0.0
2014-Oct-23 17:33N 51°55' E 004°13'0 0.0
2014-Oct-23 16:30N 51°55' E 004°13'0 0.0
2014-Oct-23 15:30N 51°55' E 004°13'0 0.0
2014-Oct-23 14:30N 51°55' E 004°13'0 0.0
2014-Oct-23 13:33N 51°55' E 004°13'0 0.0
2014-Oct-23 12:33N 51°55' E 004°13'0 0.0
2014-Oct-23 11:30N 51°55' E 004°13'0 0.0
2014-Oct-23 10:12N 51°55' E 004°13'0 0.0
2014-Oct-23 09:33N 51°55' E 004°13'0 0.0
2014-Oct-23 08:30N 51°55' E 004°13'0 0.0
2014-Oct-23 07:33N 51°55' E 004°13'0 0.0
2014-Oct-23 06:30N 51°55' E 004°13'0 0.0
2014-Oct-23 05:30N 51°55' E 004°13'0 0.0
2014-Oct-23 04:33N 51°55' E 004°13'0 0.0
2014-Oct-23 03:33N 51°55' E 004°13'0 0.0
2014-Oct-23 02:24N 51°55' E 004°13'0 0.0
2014-Oct-23 01:24N 51°55' E 004°13'0 0.0
2014-Oct-23 00:30N 51°55' E 004°13'0 0.0
2014-Oct-22 23:30N 51°55' E 004°13'0 0.0
2014-Oct-22 22:33N 51°55' E 004°13'5 5.3
2014-Oct-22 21:33N 51°58' E 004°06'1110.7
2014-Oct-22 20:34N 52°01' E 003°49'12 9.6
2014-Oct-22 19:22N 52°08' E 003°34'2 0.3
2014-Oct-22 10:30N 52°10' E 003°34'0 0.0
2014-Oct-22 09:30N 52°10' E 003°33'0 0.5
2014-Oct-22 08:32N 52°11' E 003°34'2 0.6
2014-Oct-22 05:33N 52°13' E 003°33'1 0.9
2014-Oct-22 04:21N 52°13' E 003°35'1 0.6
2014-Oct-22 03:23N 52°13' E 003°36'1 0.4
2014-Oct-22 01:30N 52°13' E 003°36'1 1.1
2014-Oct-22 00:30N 52°11' E 003°36'1 1.2
2014-Oct-21 23:24N 52°11' E 003°34'1 0.8
2014-Oct-21 22:30N 52°11' E 003°33'  

Dump ship's entire track history